Terminal Aerodrome Forecast
Issued by NWS

Home | Current Version | Previous Version | Text Only | Print | Product List | Glossary On
Versions: 1 2 3 4 5 6 7 8 9 10 11 12 13
000
FTUS45 KPIH 222330
TAFSUN
TAF
KSUN 222330Z 2300/2324 13008KT P6SM FEW060
     FM230300 32010KT P6SM FEW070
     FM231800 15006KT P6SM SCT050
     FM232100 24008KT P6SM SCT050
      AMD LTD TO CLD VIS AND WIND 2305/2313=

USA.gov is the U.S. government's official web portal to all federal, state and local government web resources and services.